Time;durP1;ratioP1;P1;durP2;ratioP2;P2;SDS_P1;SDS_P2;PMS_P1;PMS_P2;Temp;Humidity;BMP_temperature;BMP_pressure;BME280_temperature;BME280_humidity;BME280_pressure;Samples;Min_cycle;Max_cycle;Signal;HPM_P1;HPM_P2
2022/06/10 00:01:19;;;;;;;21.53;17.90;;;;;;;;;;4959977;28;20232;-66
2022/06/10 00:04:04;;;;;;;21.07;18.73;;;;;;;;;;4962373;28;20689;-66
2022/06/10 00:06:31;;;;;;;19.80;17.70;;;;;;;;;;4960920;28;20229;-66
2022/06/10 00:08:57;;;;;;;20.73;18.33;;;;;;;;;;4961913;28;20316;-66
2022/06/10 00:11:24;;;;;;;20.07;17.97;;;;;;;;;;4960547;28;20225;-66
2022/06/10 00:13:50;;;;;;;22.30;18.40;;;;;;;;;;4961991;28;20243;-66
2022/06/10 00:16:35;;;;;;;23.77;18.87;;;;;;;;;;4969721;28;20232;-66
2022/06/10 00:19:01;;;;;;;20.33;18.07;;;;;;;;;;4944211;28;20276;-66
2022/06/10 00:21:45;;;;;;;20.37;17.83;;;;;;;;;;4971157;28;20266;-66
2022/06/10 00:24:12;;;;;;;19.20;17.20;;;;;;;;;;4966827;28;20221;-66
2022/06/10 00:26:39;;;;;;;22.97;18.43;;;;;;;;;;4968236;28;20310;-66
2022/06/10 00:29:06;;;;;;;20.80;17.93;;;;;;;;;;4960498;28;20220;-66
2022/06/10 00:31:33;;;;;;;19.53;16.60;;;;;;;;;;4961637;28;20232;-66
2022/06/10 00:33:59;;;;;;;18.40;16.50;;;;;;;;;;4962123;28;20692;-66
2022/06/10 00:36:26;;;;;;;19.13;17.13;;;;;;;;;;4962900;28;20285;-67
2022/06/10 00:38:53;;;;;;;17.97;16.07;;;;;;;;;;4960680;28;20333;-66
2022/06/10 00:41:40;;;;;;;17.93;16.03;;;;;;;;;;4962455;28;20232;-66
2022/06/10 00:44:25;;;;;;;19.17;17.00;;;;;;;;;;4961984;28;20240;-66
2022/06/10 00:47:15;;;;;;;18.60;16.70;;;;;;;;;;4961476;28;20220;-66
2022/06/10 00:49:43;;;;;;;19.87;16.97;;;;;;;;;;4955292;28;20311;-66
2022/06/10 00:52:29;;;;;;;18.80;16.43;;;;;;;;;;4961813;28;20651;-66
2022/06/10 00:54:55;;;;;;;18.43;16.53;;;;;;;;;;4939612;28;20714;-66
2022/06/10 00:57:40;;;;;;;17.67;15.77;;;;;;;;;;4961761;28;20228;-66
2022/06/10 01:00:16;;;;;;;17.60;15.70;;;;;;;;;;4959800;28;20228;-66
2022/06/10 01:02:43;;;;;;;18.27;16.33;;;;;;;;;;4946236;28;20580;-66
2022/06/10 01:05:14;;;;;;;19.83;17.73;;;;;;;;;;4961264;28;20596;-66
2022/06/10 01:07:45;;;;;;;18.47;16.47;;;;;;;;;;4963474;28;20239;-65
2022/06/10 01:10:13;;;;;;;18.23;16.17;;;;;;;;;;4964398;28;20274;-66
2022/06/10 01:12:48;;;;;;;17.80;16.00;;;;;;;;;;4955924;28;20236;-66
2022/06/10 01:15:35;;;;;;;17.60;15.90;;;;;;;;;;4965217;28;20224;-66
2022/06/10 01:18:13;;;;;;;18.10;15.77;;;;;;;;;;4951768;28;20220;-66
2022/06/10 01:20:57;;;;;;;17.43;15.60;;;;;;;;;;4963564;28;20247;-66
2022/06/10 01:23:38;;;;;;;17.43;14.87;;;;;;;;;;4971794;28;20221;-66
2022/06/10 01:26:11;;;;;;;15.57;14.00;;;;;;;;;;4964870;28;20700;-66
2022/06/10 01:28:48;;;;;;;19.37;15.67;;;;;;;;;;4948875;28;20232;-67
2022/06/10 01:31:22;;;;;;;17.27;14.73;;;;;;;;;;4963302;28;20224;-66
2022/06/10 01:33:51;;;;;;;16.50;14.27;;;;;;;;;;4953515;28;20239;-66
2022/06/10 01:36:37;;;;;;;17.07;15.27;;;;;;;;;;4965870;28;20238;-66
2022/06/10 01:39:36;;;;;;;15.67;14.00;;;;;;;;;;4949215;28;20236;-66
2022/06/10 01:42:09;;;;;;;17.27;15.13;;;;;;;;;;4937618;28;20238;-66
2022/06/10 01:44:48;;;;;;;17.67;15.43;;;;;;;;;;4933241;28;20232;-66
2022/06/10 01:47:21;;;;;;;18.50;15.30;;;;;;;;;;4999977;28;20922;-66
2022/06/10 01:49:48;;;;;;;16.93;14.40;;;;;;;;;;5002282;28;20227;-66
2022/06/10 01:52:24;;;;;;;16.47;14.67;;;;;;;;;;4996928;28;21030;-66
2022/06/10 01:54:57;;;;;;;16.20;14.50;;;;;;;;;;4982149;28;20227;-66
2022/06/10 01:57:31;;;;;;;16.93;14.90;;;;;;;;;;4978956;28;20239;-66
2022/06/10 02:00:19;;;;;;;16.77;14.97;;;;;;;;;;4976780;28;20215;-66
2022/06/10 02:03:00;;;;;;;16.93;15.20;;;;;;;;;;5001815;28;20243;-66
2022/06/10 02:05:27;;;;;;;16.23;14.43;;;;;;;;;;4969270;28;20581;-67
2022/06/10 02:08:02;;;;;;;16.17;14.40;;;;;;;;;;4961892;28;20236;-66
2022/06/10 02:10:31;;;;;;;16.70;14.90;;;;;;;;;;4966427;28;20587;-66
2022/06/10 02:13:02;;;;;;;16.43;14.50;;;;;;;;;;4950559;28;20236;-66
2022/06/10 02:15:30;;;;;;;18.00;15.70;;;;;;;;;;4956304;28;20229;-67
2022/06/10 02:17:57;;;;;;;18.53;16.57;;;;;;;;;;4956009;28;20229;-66
2022/06/10 02:20:25;;;;;;;24.07;19.93;;;;;;;;;;4962725;28;20352;-66
2022/06/10 02:23:10;;;;;;;24.93;20.07;;;;;;;;;;4952714;28;20332;-66
2022/06/10 02:25:41;;;;;;;25.90;21.90;;;;;;;;;;4960905;28;45257;-66
2022/06/10 02:28:09;;;;;;;29.87;23.30;;;;;;;;;;4964882;28;20230;-66
2022/06/10 02:30:38;;;;;;;30.47;25.07;;;;;;;;;;4982558;28;20244;-69
2022/06/10 02:33:05;;;;;;;31.60;25.30;;;;;;;;;;4958613;28;20220;-66
2022/06/10 02:35:35;;;;;;;31.93;26.10;;;;;;;;;;4979213;28;20238;-66
2022/06/10 02:38:13;;;;;;;33.97;26.63;;;;;;;;;;4968003;28;20235;-66
2022/06/10 02:40:42;;;;;;;34.63;26.17;;;;;;;;;;4966642;28;20520;-66
2022/06/10 02:43:20;;;;;;;35.40;27.17;;;;;;;;;;4980769;28;20228;-65
2022/06/10 02:46:06;;;;;;;36.77;28.20;;;;;;;;;;4978071;28;20238;-65
2022/06/10 02:48:55;;;;;;;40.73;29.47;;;;;;;;;;4969697;28;20228;-66
2022/06/10 02:51:21;;;;;;;37.10;28.90;;;;;;;;;;4951929;28;20299;-65
2022/06/10 02:53:48;;;;;;;36.87;28.50;;;;;;;;;;4958248;28;20224;-65
2022/06/10 02:56:16;;;;;;;38.40;29.03;;;;;;;;;;4980750;28;21030;-65
2022/06/10 03:01:38;;;;;;;40.30;29.90;;;;;;;;;;4964677;28;20220;-66
2022/06/10 03:04:09;;;;;;;41.80;30.97;;;;;;;;;;4968205;28;20235;-64
2022/06/10 03:06:35;;;;;;;46.03;32.90;;;;;;;;;;4948549;28;20970;-65
2022/06/10 03:09:08;;;;;;;46.43;34.37;;;;;;;;;;4960176;28;20232;-66
2022/06/10 03:11:37;;;;;;;48.57;34.10;;;;;;;;;;4964988;28;20259;-66
2022/06/10 03:14:10;;;;;;;49.03;34.13;;;;;;;;;;4953355;28;22360;-65
2022/06/10 03:16:51;;;;;;;45.07;32.53;;;;;;;;;;4960924;28;20990;-65
2022/06/10 03:19:22;;;;;;;45.73;32.27;;;;;;;;;;4966566;28;20359;-64
2022/06/10 03:21:52;;;;;;;45.93;31.40;;;;;;;;;;4967576;28;20231;-65
2022/06/10 03:24:20;;;;;;;42.50;31.10;;;;;;;;;;4964101;28;20263;-69
2022/06/10 03:26:59;;;;;;;43.60;30.70;;;;;;;;;;4962347;28;20220;-66
2022/06/10 03:29:33;;;;;;;39.37;29.67;;;;;;;;;;4954514;28;20274;-64
2022/06/10 03:32:01;;;;;;;42.03;29.23;;;;;;;;;;4952401;28;20711;-62
2022/06/10 03:34:31;;;;;;;43.97;29.77;;;;;;;;;;4954461;28;21232;-64
2022/06/10 03:36:58;;;;;;;44.80;29.53;;;;;;;;;;4986505;28;20244;-68
2022/06/10 03:39:24;;;;;;;45.70;30.63;;;;;;;;;;4969720;28;20239;-65
2022/06/10 03:41:57;;;;;;;43.67;29.70;;;;;;;;;;4951891;28;20315;-66
2022/06/10 03:44:24;;;;;;;46.60;29.63;;;;;;;;;;4948350;28;20683;-64
2022/06/10 03:46:51;;;;;;;51.70;31.13;;;;;;;;;;4949952;28;20233;-64
2022/06/10 03:49:18;;;;;;;48.50;31.30;;;;;;;;;;4947583;28;20964;-64
2022/06/10 03:51:45;;;;;;;52.80;32.43;;;;;;;;;;4964773;28;20311;-65
2022/06/10 03:54:15;;;;;;;52.13;32.37;;;;;;;;;;4961871;28;20254;-64
2022/06/10 03:56:42;;;;;;;49.10;32.00;;;;;;;;;;4938099;28;20224;-64
2022/06/10 03:59:08;;;;;;;48.77;31.10;;;;;;;;;;4967377;28;20224;-65
2022/06/10 04:01:53;;;;;;;43.60;29.73;;;;;;;;;;4957797;28;20247;-64
2022/06/10 04:04:19;;;;;;;46.70;29.33;;;;;;;;;;4960582;28;20684;-65
2022/06/10 04:06:47;;;;;;;44.37;28.47;;;;;;;;;;4960500;28;20573;-66
2022/06/10 04:09:29;;;;;;;48.63;31.37;;;;;;;;;;4958585;28;20712;-65
2022/06/10 04:11:56;;;;;;;45.27;30.23;;;;;;;;;;4957455;28;20247;-65
2022/06/10 04:14:23;;;;;;;53.13;33.97;;;;;;;;;;4969540;28;20368;-64
2022/06/10 04:16:49;;;;;;;52.23;33.40;;;;;;;;;;4964059;28;20244;-65
2022/06/10 04:19:16;;;;;;;55.67;33.20;;;;;;;;;;4965456;28;20240;-64
2022/06/10 04:21:44;;;;;;;56.67;35.17;;;;;;;;;;4965970;28;20243;-67
2022/06/10 04:24:10;;;;;;;58.40;36.57;;;;;;;;;;4962737;28;20236;-66
2022/06/10 04:26:37;;;;;;;55.33;35.73;;;;;;;;;;4965039;28;20246;-67
2022/06/10 04:29:04;;;;;;;55.40;35.43;;;;;;;;;;4963984;28;20243;-65
2022/06/10 04:31:30;;;;;;;55.50;35.60;;;;;;;;;;4948235;28;20231;-67
2022/06/10 04:33:58;;;;;;;57.30;36.40;;;;;;;;;;4965341;28;20263;-67
2022/06/10 04:36:24;;;;;;;52.97;34.43;;;;;;;;;;4954476;28;20240;-66
2022/06/10 04:38:51;;;;;;;53.43;34.50;;;;;;;;;;4963930;28;20229;-67
2022/06/10 04:41:18;;;;;;;50.20;34.93;;;;;;;;;;4938439;28;43573;-65
2022/06/10 04:43:45;;;;;;;53.00;35.33;;;;;;;;;;4961081;28;20663;-64
2022/06/10 04:46:15;;;;;;;51.13;33.83;;;;;;;;;;4968877;28;20235;-65
2022/06/10 04:48:42;;;;;;;51.10;32.17;;;;;;;;;;4959753;28;20221;-64
2022/06/10 04:51:09;;;;;;;48.73;32.87;;;;;;;;;;4962393;28;20221;-64
2022/06/10 04:53:36;;;;;;;52.07;33.83;;;;;;;;;;4960011;28;20232;-65
2022/06/10 04:56:02;;;;;;;52.17;33.43;;;;;;;;;;4970560;28;20223;-65
2022/06/10 04:58:29;;;;;;;52.17;33.20;;;;;;;;;;4962675;28;20316;-65
2022/06/10 05:00:56;;;;;;;49.00;33.37;;;;;;;;;;4961957;28;20231;-64
2022/06/10 05:03:22;;;;;;;53.67;34.83;;;;;;;;;;4971764;28;20255;-64
2022/06/10 05:05:49;;;;;;;53.83;34.87;;;;;;;;;;4968749;28;22093;-65
2022/06/10 05:08:17;;;;;;;54.37;34.37;;;;;;;;;;4959871;28;20229;-64
2022/06/10 05:10:44;;;;;;;50.70;33.83;;;;;;;;;;4988295;28;20242;-64
2022/06/10 05:13:11;;;;;;;51.90;35.57;;;;;;;;;;4967927;28;20232;-64
2022/06/10 05:15:58;;;;;;;49.47;33.23;;;;;;;;;;4952700;28;35400;-64
2022/06/10 05:18:42;;;;;;;47.33;33.00;;;;;;;;;;4969967;28;20867;-64
2022/06/10 05:21:10;;;;;;;40.97;31.20;;;;;;;;;;4929776;28;20247;-67
2022/06/10 05:23:36;;;;;;;38.80;30.33;;;;;;;;;;4979855;28;20231;-65
2022/06/10 05:26:03;;;;;;;38.23;29.77;;;;;;;;;;4967599;28;20234;-65
2022/06/10 05:28:34;;;;;;;37.23;28.37;;;;;;;;;;4961109;28;20239;-65
2022/06/10 05:31:19;;;;;;;34.93;27.23;;;;;;;;;;4952186;28;20221;-66
2022/06/10 05:36:49;;;;;;;34.23;26.70;;;;;;;;;;4965217;28;20275;-66
2022/06/10 05:39:16;;;;;;;31.33;26.23;;;;;;;;;;4972575;28;20235;-67
2022/06/10 05:44:29;;;;;;;28.43;23.50;;;;;;;;;;4961420;28;20235;-66
2022/06/10 05:47:14;;;;;;;27.70;22.93;;;;;;;;;;4961164;28;21810;-66
2022/06/10 05:49:42;;;;;;;26.77;22.30;;;;;;;;;;4952468;28;25028;-65
2022/06/10 05:52:10;;;;;;;24.77;21.80;;;;;;;;;;4976841;28;20227;-69
2022/06/10 05:54:37;;;;;;;26.37;22.23;;;;;;;;;;4947723;28;20244;-65
2022/06/10 05:57:04;;;;;;;25.70;21.43;;;;;;;;;;4958445;28;20861;-65
2022/06/10 05:59:49;;;;;;;21.47;19.17;;;;;;;;;;4971046;28;20223;-69
2022/06/10 06:02:16;;;;;;;22.20;18.57;;;;;;;;;;4965214;28;22776;-66
2022/06/10 06:04:43;;;;;;;21.47;17.80;;;;;;;;;;4972063;28;32051;-67
2022/06/10 06:07:10;;;;;;;19.73;17.63;;;;;;;;;;4965883;28;20234;-66
2022/06/10 06:09:37;;;;;;;20.37;16.40;;;;;;;;;;4952610;28;20244;-66
2022/06/10 06:12:04;;;;;;;16.40;14.50;;;;;;;;;;4970028;28;20242;-65
2022/06/10 06:14:32;;;;;;;15.87;14.27;;;;;;;;;;4963432;28;20244;-66
2022/06/10 06:17:00;;;;;;;14.60;12.13;;;;;;;;;;4978112;28;20224;-67
2022/06/10 06:19:27;;;;;;;13.67;12.23;;;;;;;;;;4969120;28;20237;-66
2022/06/10 06:21:54;;;;;;;16.50;12.63;;;;;;;;;;4963221;28;20393;-64
2022/06/10 06:24:21;;;;;;;15.43;11.57;;;;;;;;;;4958512;28;20228;-66
2022/06/10 06:26:48;;;;;;;12.50;10.53;;;;;;;;;;4944917;28;20602;-65
2022/06/10 06:29:15;;;;;;;12.40;10.97;;;;;;;;;;4939295;28;20243;-65
2022/06/10 06:31:42;;;;;;;11.20;9.97;;;;;;;;;;4956197;28;20687;-66
2022/06/10 06:34:10;;;;;;;11.93;9.80;;;;;;;;;;4983909;28;20223;-68
2022/06/10 06:36:38;;;;;;;11.57;10.37;;;;;;;;;;4970442;28;20228;-66
2022/06/10 06:39:05;;;;;;;10.63;8.73;;;;;;;;;;4963743;28;20365;-65
2022/06/10 06:41:32;;;;;;;12.47;8.63;;;;;;;;;;4965044;28;20243;-66
2022/06/10 06:43:59;;;;;;;9.73;8.63;;;;;;;;;;4967485;28;20703;-65
2022/06/10 06:46:26;;;;;;;11.00;8.60;;;;;;;;;;4975416;28;20255;-64
2022/06/10 06:48:54;;;;;;;10.67;8.70;;;;;;;;;;4949748;28;20322;-65
2022/06/10 06:51:20;;;;;;;9.30;8.40;;;;;;;;;;4964013;28;20220;-65
2022/06/10 06:53:47;;;;;;;8.67;7.77;;;;;;;;;;4968259;28;20634;-63
2022/06/10 06:56:14;;;;;;;7.77;6.90;;;;;;;;;;4957186;28;20246;-65
2022/06/10 06:58:41;;;;;;;7.80;6.90;;;;;;;;;;4965728;28;21128;-66
2022/06/10 07:01:07;;;;;;;7.13;6.40;;;;;;;;;;4960798;28;20225;-65
2022/06/10 07:03:36;;;;;;;7.10;6.40;;;;;;;;;;4960287;28;20893;-65
2022/06/10 07:06:03;;;;;;;6.70;5.70;;;;;;;;;;4966448;28;20352;-64
2022/06/10 07:08:32;;;;;;;7.00;5.97;;;;;;;;;;4962672;28;20244;-65
2022/06/10 07:11:00;;;;;;;10.00;6.03;;;;;;;;;;4958274;28;20587;-66
2022/06/10 07:13:27;;;;;;;6.53;5.30;;;;;;;;;;4968877;28;20259;-65
2022/06/10 07:15:54;;;;;;;6.03;5.40;;;;;;;;;;4960236;28;20242;-67
2022/06/10 07:18:22;;;;;;;7.70;6.33;;;;;;;;;;4967806;28;20232;-67
2022/06/10 07:20:48;;;;;;;7.83;6.13;;;;;;;;;;4967053;28;20228;-66
2022/06/10 07:23:16;;;;;;;6.50;5.80;;;;;;;;;;4959876;28;20235;-65
2022/06/10 07:26:02;;;;;;;8.33;5.83;;;;;;;;;;4966503;28;20286;-66
2022/06/10 07:28:29;;;;;;;6.57;5.87;;;;;;;;;;4962007;28;33921;-68
2022/06/10 07:31:13;;;;;;;8.73;5.63;;;;;;;;;;4961931;28;20227;-67
2022/06/10 07:33:40;;;;;;;8.20;6.10;;;;;;;;;;4943058;28;20277;-69
2022/06/10 07:36:26;;;;;;;7.30;5.53;;;;;;;;;;4965658;28;20315;-68
2022/06/10 07:38:53;;;;;;;7.30;6.23;;;;;;;;;;4961415;28;20225;-68
2022/06/10 07:44:24;;;;;;;8.10;6.50;;;;;;;;;;4961741;28;20240;-69
2022/06/10 07:46:52;;;;;;;7.47;6.53;;;;;;;;;;4945723;28;20838;-67
2022/06/10 07:49:24;;;;;;;7.43;5.77;;;;;;;;;;4937678;28;20343;-68
2022/06/10 07:51:51;;;;;;;7.03;6.23;;;;;;;;;;4973585;28;20693;-69
2022/06/10 07:54:18;;;;;;;6.20;5.57;;;;;;;;;;4955385;28;229671;-68
2022/06/10 07:56:45;;;;;;;10.50;6.23;;;;;;;;;;4959695;28;20228;-68
2022/06/10 07:59:14;;;;;;;7.77;6.47;;;;;;;;;;4974030;28;20223;-66
2022/06/10 08:01:41;;;;;;;7.23;6.53;;;;;;;;;;4962314;28;28988;-70
2022/06/10 08:04:08;;;;;;;6.30;5.70;;;;;;;;;;4965680;28;20220;-70
2022/06/10 08:06:37;;;;;;;9.37;6.67;;;;;;;;;;4953897;28;20250;-69
2022/06/10 08:09:04;;;;;;;7.97;6.03;;;;;;;;;;4976113;28;20227;-70
2022/06/10 08:11:31;;;;;;;7.10;6.37;;;;;;;;;;4948210;28;20351;-69
2022/06/10 08:13:58;;;;;;;9.70;6.17;;;;;;;;;;4970513;28;20236;-70
2022/06/10 08:16:25;;;;;;;7.50;6.23;;;;;;;;;;4962333;28;20907;-68
2022/06/10 08:18:54;;;;;;;9.53;6.67;;;;;;;;;;4946978;28;20939;-68
2022/06/10 08:24:06;;;;;;;8.87;6.90;;;;;;;;;;4976092;28;20726;-69
2022/06/10 08:26:34;;;;;;;9.27;6.90;;;;;;;;;;4966543;28;20246;-69
2022/06/10 08:29:03;;;;;;;9.70;6.80;;;;;;;;;;4962685;28;20236;-69
2022/06/10 08:31:48;;;;;;;8.80;6.57;;;;;;;;;;4959459;28;20322;-69
2022/06/10 08:34:15;;;;;;;7.17;5.53;;;;;;;;;;4946694;28;20243;-68
2022/06/10 08:37:01;;;;;;;7.53;6.00;;;;;;;;;;4952595;28;27416;-69
2022/06/10 08:39:29;;;;;;;8.90;6.47;;;;;;;;;;4953451;28;219831;-71
2022/06/10 08:42:12;;;;;;;6.90;5.80;;;;;;;;;;4955822;28;20232;-68
2022/06/10 08:44:42;;;;;;;11.07;6.17;;;;;;;;;;4954129;28;232082;-66
2022/06/10 08:47:10;;;;;;;7.93;5.90;;;;;;;;;;4963273;28;20322;-68
2022/06/10 08:49:43;;;;;;;6.73;6.03;;;;;;;;;;4969350;28;20339;-69
2022/06/10 08:52:20;;;;;;;7.43;5.70;;;;;;;;;;4964310;28;20301;-70
2022/06/10 08:54:48;;;;;;;8.17;7.10;;;;;;;;;;4960334;28;20735;-66
2022/06/10 08:57:36;;;;;;;9.07;6.60;;;;;;;;;;4963726;28;24997;-68
2022/06/10 09:00:12;;;;;;;7.77;6.97;;;;;;;;;;4971490;28;20246;-66
2022/06/10 09:02:40;;;;;;;9.33;6.97;;;;;;;;;;4970493;28;20716;-66
2022/06/10 09:05:07;;;;;;;7.67;6.60;;;;;;;;;;4970919;28;20311;-67
2022/06/10 09:07:42;;;;;;;7.80;6.17;;;;;;;;;;4963619;28;20298;-65
2022/06/10 09:10:20;;;;;;;8.63;6.60;;;;;;;;;;4968807;28;20215;-66
2022/06/10 09:13:07;;;;;;;7.50;5.90;;;;;;;;;;4965898;28;20272;-65
2022/06/10 09:15:34;;;;;;;7.30;6.27;;;;;;;;;;4968461;28;20275;-65
2022/06/10 09:18:06;;;;;;;6.13;5.53;;;;;;;;;;4961076;28;20224;-65
2022/06/10 09:20:35;;;;;;;6.40;5.77;;;;;;;;;;4975686;28;20223;-65
2022/06/10 09:23:15;;;;;;;6.67;6.03;;;;;;;;;;4965823;28;20242;-67
2022/06/10 09:25:46;;;;;;;8.57;5.77;;;;;;;;;;4961285;28;20235;-65
2022/06/10 09:28:13;;;;;;;9.17;5.43;;;;;;;;;;4962480;28;20232;-65
2022/06/10 09:30:43;;;;;;;7.03;5.17;;;;;;;;;;4971099;28;20278;-64
2022/06/10 09:33:10;;;;;;;5.60;5.00;;;;;;;;;;4967802;28;20244;-66
2022/06/10 09:35:51;;;;;;;6.80;4.63;;;;;;;;;;4959651;28;20279;-69
2022/06/10 09:38:24;;;;;;;6.53;4.77;;;;;;;;;;4965499;28;20367;-66
2022/06/10 09:41:17;;;;;;;6.83;4.40;;;;;;;;;;4971321;28;20278;-66
2022/06/10 09:43:50;;;;;;;4.83;4.33;;;;;;;;;;4963359;28;22996;-64
2022/06/10 09:46:20;;;;;;;5.20;4.40;;;;;;;;;;4968508;28;20750;-66
2022/06/10 09:48:50;;;;;;;5.50;3.83;;;;;;;;;;4965953;28;41025;-66
2022/06/10 09:51:29;;;;;;;5.80;3.30;;;;;;;;;;4968869;28;20779;-66
2022/06/10 09:54:14;;;;;;;7.20;3.13;;;;;;;;;;4947436;28;20228;-65
2022/06/10 09:56:47;;;;;;;4.43;3.23;;;;;;;;;;4963793;28;20731;-66
2022/06/10 09:59:17;;;;;;;4.50;3.70;;;;;;;;;;4954376;28;20274;-67
2022/06/10 10:01:53;;;;;;;3.83;3.07;;;;;;;;;;4972364;28;20313;-66
2022/06/10 10:04:26;;;;;;;4.10;2.87;;;;;;;;;;4965410;28;20228;-66
2022/06/10 10:07:18;;;;;;;5.13;3.27;;;;;;;;;;4968138;28;20232;-65
2022/06/10 10:09:49;;;;;;;4.27;2.90;;;;;;;;;;4950642;28;21153;-64
2022/06/10 10:12:28;;;;;;;4.10;2.40;;;;;;;;;;4953082;28;20232;-65
2022/06/10 10:15:14;;;;;;;4.37;2.40;;;;;;;;;;4961425;28;20893;-67
2022/06/10 10:17:45;;;;;;;3.83;2.40;;;;;;;;;;4970753;28;20383;-65
2022/06/10 10:20:35;;;;;;;5.03;2.47;;;;;;;;;;4963333;28;20231;-66
2022/06/10 10:23:25;;;;;;;2.67;2.20;;;;;;;;;;4959966;28;20231;-64
2022/06/10 10:25:52;;;;;;;4.17;2.30;;;;;;;;;;4963177;28;20259;-65
2022/06/10 10:28:38;;;;;;;2.40;2.20;;;;;;;;;;4945731;28;20232;-66
2022/06/10 10:31:24;;;;;;;3.40;2.37;;;;;;;;;;4949378;28;20224;-67
2022/06/10 10:34:11;;;;;;;2.53;2.30;;;;;;;;;;4964758;28;20224;-65
2022/06/10 10:36:38;;;;;;;4.67;2.80;;;;;;;;;;4959343;28;20236;-65
2022/06/10 10:39:27;;;;;;;3.53;2.63;;;;;;;;;;4966238;28;20312;-64
2022/06/10 10:41:56;;;;;;;4.87;3.23;;;;;;;;;;4938194;28;25468;-65
2022/06/10 10:44:25;;;;;;;4.20;2.70;;;;;;;;;;4920409;28;20298;-66
2022/06/10 10:46:58;;;;;;;4.30;2.53;;;;;;;;;;4961572;28;20278;-64
2022/06/10 10:49:53;;;;;;;3.90;2.60;;;;;;;;;;4964194;28;20274;-66
2022/06/10 10:52:22;;;;;;;3.27;2.60;;;;;;;;;;4946764;28;20244;-66
2022/06/10 10:54:51;;;;;;;4.83;2.53;;;;;;;;;;4957901;28;20234;-70
2022/06/10 10:57:22;;;;;;;2.70;2.10;;;;;;;;;;4950396;28;20292;-68
2022/06/10 10:59:58;;;;;;;3.77;2.50;;;;;;;;;;4978321;28;29097;-67
2022/06/10 11:02:31;;;;;;;3.50;2.67;;;;;;;;;;4965116;28;20227;-67
2022/06/10 11:05:16;;;;;;;3.73;2.43;;;;;;;;;;4965145;28;20231;-67
2022/06/10 11:07:43;;;;;;;4.43;2.30;;;;;;;;;;4959625;28;21266;-68
2022/06/10 11:10:19;;;;;;;3.60;2.53;;;;;;;;;;4957629;28;20232;-66
2022/06/10 11:12:47;;;;;;;2.80;2.07;;;;;;;;;;4938801;28;213213;-68
2022/06/10 11:15:31;;;;;;;3.37;2.10;;;;;;;;;;4955012;28;222009;-68
2022/06/10 11:17:58;;;;;;;2.47;2.00;;;;;;;;;;4960221;28;20292;-68
2022/06/10 11:20:27;;;;;;;5.13;2.10;;;;;;;;;;4955121;28;20656;-66
2022/06/10 11:23:12;;;;;;;3.97;2.20;;;;;;;;;;4981724;28;20223;-67
2022/06/10 11:26:10;;;;;;;2.67;1.90;;;;;;;;;;4965531;28;20231;-69
2022/06/10 11:28:38;;;;;;;2.93;1.83;;;;;;;;;;4959662;28;20271;-68
2022/06/10 11:31:26;;;;;;;2.83;1.90;;;;;;;;;;4956014;28;20219;-68
2022/06/10 11:33:53;;;;;;;2.60;1.70;;;;;;;;;;4956785;28;20251;-67
2022/06/10 11:36:22;;;;;;;2.53;1.40;;;;;;;;;;4954682;28;20730;-67
2022/06/10 11:38:51;;;;;;;2.93;1.60;;;;;;;;;;4952190;28;20229;-68
2022/06/10 11:41:22;;;;;;;4.43;1.80;;;;;;;;;;4930065;28;20235;-67
2022/06/10 11:44:12;;;;;;;3.40;1.80;;;;;;;;;;4951522;28;22501;-67
2022/06/10 11:46:58;;;;;;;3.27;1.97;;;;;;;;;;4919383;28;20228;-68
2022/06/10 11:49:30;;;;;;;2.10;1.60;;;;;;;;;;4964057;28;20240;-68
2022/06/10 11:51:58;;;;;;;3.40;1.47;;;;;;;;;;4977133;28;20227;-69
2022/06/10 11:54:29;;;;;;;2.63;1.73;;;;;;;;;;4960020;28;20235;-68
2022/06/10 12:00:18;;;;;;;2.97;1.77;;;;;;;;;;4964314;28;20216;-67
2022/06/10 12:02:51;;;;;;;2.80;1.90;;;;;;;;;;4964176;28;26187;-68
2022/06/10 12:05:38;;;;;;;2.30;1.70;;;;;;;;;;4969357;28;20318;-67
2022/06/10 12:08:05;;;;;;;2.13;1.70;;;;;;;;;;4960717;28;20225;-66
2022/06/10 12:10:53;;;;;;;4.63;1.80;;;;;;;;;;4954435;28;20239;-67
2022/06/10 12:13:20;;;;;;;3.27;1.90;;;;;;;;;;4960313;28;20263;-68
2022/06/10 12:15:57;;;;;;;2.17;1.70;;;;;;;;;;4946609;28;213776;-67
2022/06/10 12:18:25;;;;;;;1.90;1.70;;;;;;;;;;4963520;28;20227;-68
2022/06/10 12:20:54;;;;;;;4.13;1.70;;;;;;;;;;4958178;28;31397;-68
2022/06/10 12:23:25;;;;;;;3.23;1.50;;;;;;;;;;4949495;28;20374;-70
2022/06/10 12:26:18;;;;;;;1.93;1.50;;;;;;;;;;4957941;28;20231;-67
2022/06/10 12:28:46;;;;;;;2.00;1.47;;;;;;;;;;4949399;28;20782;-67
2022/06/10 12:31:16;;;;;;;2.00;1.57;;;;;;;;;;4966519;28;20255;-68
2022/06/10 12:34:00;;;;;;;1.73;1.30;;;;;;;;;;4967838;28;20283;-67
2022/06/10 12:36:28;;;;;;;2.63;1.70;;;;;;;;;;4956063;28;215666;-67
2022/06/10 12:38:55;;;;;;;1.80;1.50;;;;;;;;;;4958112;28;30644;-68
2022/06/10 12:41:35;;;;;;;4.13;1.80;;;;;;;;;;4961001;28;20227;-68
2022/06/10 12:44:05;;;;;;;2.07;1.73;;;;;;;;;;4961872;28;20239;-68
2022/06/10 12:46:46;;;;;;;1.77;1.60;;;;;;;;;;4963713;28;20242;-68
2022/06/10 12:49:28;;;;;;;3.03;1.70;;;;;;;;;;4962205;28;20235;-69
2022/06/10 12:52:15;;;;;;;3.77;1.73;;;;;;;;;;4962232;28;25958;-67
2022/06/10 12:54:56;;;;;;;1.50;1.40;;;;;;;;;;4960856;28;20580;-68
2022/06/10 12:57:39;;;;;;;1.70;1.53;;;;;;;;;;4967869;28;20298;-67
2022/06/10 13:00:18;;;;;;;3.20;1.80;;;;;;;;;;4947582;28;20224;-67
2022/06/10 13:02:49;;;;;;;3.33;2.20;;;;;;;;;;4955987;28;20243;-68
2022/06/10 13:05:19;;;;;;;2.50;1.90;;;;;;;;;;4972472;28;20240;-67
2022/06/10 13:07:49;;;;;;;3.70;1.90;;;;;;;;;;4973643;28;20223;-67
2022/06/10 13:10:28;;;;;;;2.03;1.83;;;;;;;;;;4966506;28;20942;-67
2022/06/10 13:13:21;;;;;;;2.40;2.00;;;;;;;;;;4968438;28;20304;-68
2022/06/10 13:16:15;;;;;;;2.17;1.80;;;;;;;;;;4956603;28;20228;-71
2022/06/10 13:18:54;;;;;;;1.80;1.50;;;;;;;;;;4950664;28;20485;-68
2022/06/10 13:21:26;;;;;;;1.93;1.63;;;;;;;;;;4963030;28;20251;-67
2022/06/10 13:23:59;;;;;;;1.63;1.50;;;;;;;;;;4972450;28;20228;-65
2022/06/10 13:26:31;;;;;;;1.60;1.40;;;;;;;;;;4980724;28;20272;-68
2022/06/10 13:29:06;;;;;;;2.10;1.60;;;;;;;;;;4957392;28;20223;-68
2022/06/10 13:31:50;;;;;;;2.20;1.73;;;;;;;;;;4981240;28;20711;-67
2022/06/10 13:34:23;;;;;;;2.07;1.77;;;;;;;;;;4962812;28;20259;-66
2022/06/10 13:36:51;;;;;;;4.23;1.90;;;;;;;;;;4951087;28;222286;-68
2022/06/10 13:39:28;;;;;;;1.90;1.60;;;;;;;;;;4964832;28;20245;-68
2022/06/10 13:41:55;;;;;;;1.97;1.77;;;;;;;;;;4966903;28;36975;-67
2022/06/10 13:44:29;;;;;;;2.07;1.70;;;;;;;;;;4965007;28;20237;-68
2022/06/10 13:46:56;;;;;;;8.23;2.10;;;;;;;;;;4947618;28;20363;-68
2022/06/10 13:49:46;;;;;;;4.97;2.00;;;;;;;;;;4974193;28;20235;-67
2022/06/10 13:52:15;;;;;;;3.10;2.50;;;;;;;;;;4957195;28;20498;-67
2022/06/10 13:54:42;;;;;;;4.83;2.33;;;;;;;;;;4966245;28;20233;-68
2022/06/10 13:57:16;;;;;;;2.30;1.93;;;;;;;;;;4952358;28;20236;-70
2022/06/10 14:00:02;;;;;;;2.43;1.70;;;;;;;;;;4953238;28;20228;-68
2022/06/10 14:02:30;;;;;;;3.10;1.67;;;;;;;;;;4956241;28;20701;-68
2022/06/10 14:05:01;;;;;;;2.63;1.57;;;;;;;;;;4965736;28;25299;-67
2022/06/10 14:07:30;;;;;;;1.60;1.40;;;;;;;;;;4952600;28;20256;-67
2022/06/10 14:09:56;;;;;;;5.23;1.40;;;;;;;;;;4964567;28;20324;-69
2022/06/10 14:12:25;;;;;;;3.20;1.57;;;;;;;;;;4971241;28;20703;-68
2022/06/10 14:15:04;;;;;;;3.13;1.90;;;;;;;;;;4923221;28;20232;-68
2022/06/10 14:17:31;;;;;;;2.07;1.80;;;;;;;;;;4958651;28;33003;-66
2022/06/10 14:19:58;;;;;;;2.30;1.70;;;;;;;;;;4966418;28;21129;-66
2022/06/10 14:22:26;;;;;;;1.73;1.60;;;;;;;;;;4959254;28;20406;-66
2022/06/10 14:25:08;;;;;;;2.43;1.63;;;;;;;;;;4968714;28;20224;-67
2022/06/10 14:27:36;;;;;;;2.57;1.53;;;;;;;;;;4969953;28;20235;-67
2022/06/10 14:30:11;;;;;;;2.93;1.70;;;;;;;;;;4972838;28;27494;-66
2022/06/10 14:32:39;;;;;;;2.20;1.53;;;;;;;;;;4969982;28;20233;-67
2022/06/10 14:35:27;;;;;;;4.53;1.63;;;;;;;;;;4959655;28;20218;-67
2022/06/10 14:38:03;;;;;;;6.47;1.30;;;;;;;;;;4971597;28;20249;-67
2022/06/10 14:40:29;;;;;;;2.00;1.40;;;;;;;;;;4963895;28;20355;-66
2022/06/10 14:43:14;;;;;;;1.97;1.50;;;;;;;;;;4959849;28;219260;-66
2022/06/10 14:46:03;;;;;;;1.10;1.00;;;;;;;;;;4973717;28;20222;-68
2022/06/10 14:48:31;;;;;;;3.27;1.67;;;;;;;;;;4971564;28;20239;-67
2022/06/10 14:51:03;;;;;;;2.90;1.43;;;;;;;;;;4956921;28;20227;-66
2022/06/10 14:53:30;;;;;;;1.20;1.10;;;;;;;;;;4962615;28;20228;-66
2022/06/10 14:55:57;;;;;;;2.80;1.60;;;;;;;;;;4944627;28;20240;-66
2022/06/10 14:58:25;;;;;;;1.73;1.10;;;;;;;;;;4938086;28;20442;-67
2022/06/10 15:00:52;;;;;;;2.67;1.23;;;;;;;;;;4965401;28;20224;-67
2022/06/10 15:03:21;;;;;;;2.40;1.10;;;;;;;;;;4952778;28;20320;-67
2022/06/10 15:08:35;;;;;;;2.37;1.30;;;;;;;;;;4953075;28;20224;-67
2022/06/10 15:11:05;;;;;;;2.03;1.17;;;;;;;;;;4951710;28;20243;-69
2022/06/10 15:13:34;;;;;;;3.10;1.30;;;;;;;;;;4949966;28;20790;-67
2022/06/10 15:16:01;;;;;;;2.77;1.20;;;;;;;;;;4979780;28;27483;-68
2022/06/10 15:18:30;;;;;;;2.93;1.30;;;;;;;;;;4969638;28;20312;-67
2022/06/10 15:20:57;;;;;;;3.37;1.30;;;;;;;;;;4956063;28;20240;-69
2022/06/10 15:23:24;;;;;;;1.93;1.23;;;;;;;;;;4932473;28;20225;-67